sensor_id;sensor_type;location;lat;lon;timestamp;P1;durP1;ratioP1;P2;durP2;ratioP2
36573;SDS011;22578;42.668;23.232;2023-07-29T00:03:11;0.90;;;0.90;;
36573;SDS011;22578;42.668;23.232;2023-07-29T00:06:32;1.10;;;1.00;;
36573;SDS011;22578;42.668;23.232;2023-07-29T00:09:52;1.10;;;1.10;;
36573;SDS011;22578;42.668;23.232;2023-07-29T00:13:12;2.08;;;1.73;;
36573;SDS011;22578;42.668;23.232;2023-07-29T00:16:33;1.60;;;1.50;;
36573;SDS011;22578;42.668;23.232;2023-07-29T00:19:53;1.15;;;1.15;;
36573;SDS011;22578;42.668;23.232;2023-07-29T00:23:14;1.75;;;1.27;;
36573;SDS011;22578;42.668;23.232;2023-07-29T00:26:34;1.00;;;1.00;;
36573;SDS011;22578;42.668;23.232;2023-07-29T00:29:55;1.00;;;1.00;;
36573;SDS011;22578;42.668;23.232;2023-07-29T00:33:15;1.55;;;1.35;;
36573;SDS011;22578;42.668;23.232;2023-07-29T00:36:36;1.10;;;1.10;;
36573;SDS011;22578;42.668;23.232;2023-07-29T00:39:56;1.67;;;1.58;;
36573;SDS011;22578;42.668;23.232;2023-07-29T00:43:18;1.80;;;1.70;;
36573;SDS011;22578;42.668;23.232;2023-07-29T00:46:38;1.00;;;1.00;;
36573;SDS011;22578;42.668;23.232;2023-07-29T00:50:01;1.00;;;1.00;;
36573;SDS011;22578;42.668;23.232;2023-07-29T00:53:22;1.48;;;1.35;;
36573;SDS011;22578;42.668;23.232;2023-07-29T00:56:42;1.10;;;1.10;;
36573;SDS011;22578;42.668;23.232;2023-07-29T01:00:03;0.80;;;0.80;;
36573;SDS011;22578;42.668;23.232;2023-07-29T01:03:24;1.00;;;1.00;;
36573;SDS011;22578;42.668;23.232;2023-07-29T01:10:39;0.90;;;0.90;;
36573;SDS011;22578;42.668;23.232;2023-07-29T01:17:32;1.33;;;1.23;;
36573;SDS011;22578;42.668;23.232;2023-07-29T01:20:54;1.65;;;1.55;;
36573;SDS011;22578;42.668;23.232;2023-07-29T01:24:23;1.52;;;1.42;;
36573;SDS011;22578;42.668;23.232;2023-07-29T01:27:44;1.33;;;1.25;;
36573;SDS011;22578;42.668;23.232;2023-07-29T01:31:13;1.40;;;1.30;;
36573;SDS011;22578;42.668;23.232;2023-07-29T01:34:41;1.13;;;1.10;;
36573;SDS011;22578;42.668;23.232;2023-07-29T01:38:05;1.75;;;1.50;;
36573;SDS011;22578;42.668;23.232;2023-07-29T01:41:30;1.40;;;1.30;;
36573;SDS011;22578;42.668;23.232;2023-07-29T01:44:50;1.25;;;1.20;;
36573;SDS011;22578;42.668;23.232;2023-07-29T01:48:11;1.25;;;1.17;;
36573;SDS011;22578;42.668;23.232;2023-07-29T01:51:31;1.00;;;1.00;;
36573;SDS011;22578;42.668;23.232;2023-07-29T01:54:51;1.23;;;1.20;;
36573;SDS011;22578;42.668;23.232;2023-07-29T01:58:12;1.30;;;1.20;;
36573;SDS011;22578;42.668;23.232;2023-07-29T02:01:34;1.10;;;1.10;;
36573;SDS011;22578;42.668;23.232;2023-07-29T02:04:54;1.20;;;1.20;;
36573;SDS011;22578;42.668;23.232;2023-07-29T02:08:15;1.20;;;1.15;;
36573;SDS011;22578;42.668;23.232;2023-07-29T02:11:36;1.50;;;1.40;;
36573;SDS011;22578;42.668;23.232;2023-07-29T02:14:56;1.35;;;1.25;;
36573;SDS011;22578;42.668;23.232;2023-07-29T02:18:17;1.63;;;1.45;;
36573;SDS011;22578;42.668;23.232;2023-07-29T02:21:37;1.10;;;1.10;;
36573;SDS011;22578;42.668;23.232;2023-07-29T02:24:58;1.40;;;1.30;;
36573;SDS011;22578;42.668;23.232;2023-07-29T02:28:18;1.00;;;1.00;;
36573;SDS011;22578;42.668;23.232;2023-07-29T02:31:39;1.00;;;1.00;;
36573;SDS011;22578;42.668;23.232;2023-07-29T02:34:59;1.55;;;1.45;;
36573;SDS011;22578;42.668;23.232;2023-07-29T02:38:19;1.20;;;1.20;;
36573;SDS011;22578;42.668;23.232;2023-07-29T02:41:40;1.38;;;1.27;;
36573;SDS011;22578;42.668;23.232;2023-07-29T02:45:00;1.30;;;1.20;;
36573;SDS011;22578;42.668;23.232;2023-07-29T02:48:21;0.90;;;0.90;;
36573;SDS011;22578;42.668;23.232;2023-07-29T02:51:41;1.33;;;1.30;;
36573;SDS011;22578;42.668;23.232;2023-07-29T02:55:02;1.20;;;1.20;;
36573;SDS011;22578;42.668;23.232;2023-07-29T02:58:22;1.45;;;1.30;;
36573;SDS011;22578;42.668;23.232;2023-07-29T03:01:42;1.92;;;1.73;;
36573;SDS011;22578;42.668;23.232;2023-07-29T03:05:03;1.33;;;1.23;;
36573;SDS011;22578;42.668;23.232;2023-07-29T03:08:24;1.50;;;1.40;;
36573;SDS011;22578;42.668;23.232;2023-07-29T03:11:44;1.23;;;1.20;;
36573;SDS011;22578;42.668;23.232;2023-07-29T03:15:06;1.17;;;1.13;;
36573;SDS011;22578;42.668;23.232;2023-07-29T03:18:27;1.20;;;1.10;;
36573;SDS011;22578;42.668;23.232;2023-07-29T03:21:47;1.38;;;1.27;;
36573;SDS011;22578;42.668;23.232;2023-07-29T03:25:08;1.40;;;1.20;;
36573;SDS011;22578;42.668;23.232;2023-07-29T03:28:29;1.08;;;1.08;;
36573;SDS011;22578;42.668;23.232;2023-07-29T03:31:50;1.60;;;1.42;;
36573;SDS011;22578;42.668;23.232;2023-07-29T03:35:10;1.77;;;1.67;;
36573;SDS011;22578;42.668;23.232;2023-07-29T03:38:31;0.93;;;0.93;;
36573;SDS011;22578;42.668;23.232;2023-07-29T03:41:53;1.10;;;1.10;;
36573;SDS011;22578;42.668;23.232;2023-07-29T03:45:13;1.77;;;1.67;;
36573;SDS011;22578;42.668;23.232;2023-07-29T03:48:34;1.10;;;1.10;;
36573;SDS011;22578;42.668;23.232;2023-07-29T03:51:54;0.90;;;0.90;;
36573;SDS011;22578;42.668;23.232;2023-07-29T03:55:15;1.10;;;1.10;;
36573;SDS011;22578;42.668;23.232;2023-07-29T03:58:35;1.48;;;1.38;;
36573;SDS011;22578;42.668;23.232;2023-07-29T04:01:56;1.33;;;1.30;;
36573;SDS011;22578;42.668;23.232;2023-07-29T04:05:16;2.70;;;1.25;;
36573;SDS011;22578;42.668;23.232;2023-07-29T04:08:37;1.70;;;1.60;;
36573;SDS011;22578;42.668;23.232;2023-07-29T04:11:57;1.15;;;1.15;;
36573;SDS011;22578;42.668;23.232;2023-07-29T04:15:18;6.25;;;2.40;;
36573;SDS011;22578;42.668;23.232;2023-07-29T04:18:38;1.58;;;1.48;;
36573;SDS011;22578;42.668;23.232;2023-07-29T04:21:59;2.05;;;1.88;;
36573;SDS011;22578;42.668;23.232;2023-07-29T04:25:20;1.55;;;1.45;;
36573;SDS011;22578;42.668;23.232;2023-07-29T04:28:41;2.03;;;1.67;;
36573;SDS011;22578;42.668;23.232;2023-07-29T04:32:03;2.20;;;2.00;;
36573;SDS011;22578;42.668;23.232;2023-07-29T04:35:23;1.88;;;1.45;;
36573;SDS011;22578;42.668;23.232;2023-07-29T04:38:44;1.20;;;1.20;;
36573;SDS011;22578;42.668;23.232;2023-07-29T04:42:04;1.52;;;1.42;;
36573;SDS011;22578;42.668;23.232;2023-07-29T04:45:27;1.50;;;1.38;;
36573;SDS011;22578;42.668;23.232;2023-07-29T04:48:49;1.30;;;1.20;;
36573;SDS011;22578;42.668;23.232;2023-07-29T04:52:09;1.92;;;1.73;;
36573;SDS011;22578;42.668;23.232;2023-07-29T04:55:30;2.63;;;1.38;;
36573;SDS011;22578;42.668;23.232;2023-07-29T04:58:50;1.48;;;1.38;;
36573;SDS011;22578;42.668;23.232;2023-07-29T05:02:11;1.40;;;1.30;;
36573;SDS011;22578;42.668;23.232;2023-07-29T05:05:31;1.10;;;1.10;;
36573;SDS011;22578;42.668;23.232;2023-07-29T05:08:52;1.17;;;1.17;;
36573;SDS011;22578;42.668;23.232;2023-07-29T05:12:12;1.63;;;1.52;;
36573;SDS011;22578;42.668;23.232;2023-07-29T05:15:33;1.73;;;1.55;;
36573;SDS011;22578;42.668;23.232;2023-07-29T05:18:53;1.50;;;1.40;;
36573;SDS011;22578;42.668;23.232;2023-07-29T05:22:14;2.20;;;1.85;;
36573;SDS011;22578;42.668;23.232;2023-07-29T05:25:34;1.42;;;1.33;;
36573;SDS011;22578;42.668;23.232;2023-07-29T05:28:55;1.35;;;1.23;;
36573;SDS011;22578;42.668;23.232;2023-07-29T05:32:15;1.55;;;1.45;;
36573;SDS011;22578;42.668;23.232;2023-07-29T05:35:36;1.27;;;1.20;;
36573;SDS011;22578;42.668;23.232;2023-07-29T05:38:57;1.50;;;1.40;;
36573;SDS011;22578;42.668;23.232;2023-07-29T05:42:17;1.77;;;1.67;;
36573;SDS011;22578;42.668;23.232;2023-07-29T05:45:38;1.80;;;1.58;;
36573;SDS011;22578;42.668;23.232;2023-07-29T05:48:58;1.48;;;1.38;;
36573;SDS011;22578;42.668;23.232;2023-07-29T05:52:18;1.48;;;1.20;;
36573;SDS011;22578;42.668;23.232;2023-07-29T05:55:39;1.50;;;1.40;;
36573;SDS011;22578;42.668;23.232;2023-07-29T05:58:59;1.77;;;1.50;;
36573;SDS011;22578;42.668;23.232;2023-07-29T06:02:20;1.38;;;1.20;;
36573;SDS011;22578;42.668;23.232;2023-07-29T06:05:40;1.17;;;1.17;;
36573;SDS011;22578;42.668;23.232;2023-07-29T06:09:01;1.13;;;1.02;;
36573;SDS011;22578;42.668;23.232;2023-07-29T06:12:21;1.52;;;1.42;;
36573;SDS011;22578;42.668;23.232;2023-07-29T06:15:42;1.58;;;1.40;;
36573;SDS011;22578;42.668;23.232;2023-07-29T06:19:02;1.60;;;1.45;;
36573;SDS011;22578;42.668;23.232;2023-07-29T06:22:22;1.23;;;1.08;;
36573;SDS011;22578;42.668;23.232;2023-07-29T06:25:43;1.40;;;1.30;;
36573;SDS011;22578;42.668;23.232;2023-07-29T06:29:04;1.73;;;1.45;;
36573;SDS011;22578;42.668;23.232;2023-07-29T06:32:24;1.02;;;1.02;;
36573;SDS011;22578;42.668;23.232;2023-07-29T06:35:44;1.05;;;1.05;;
36573;SDS011;22578;42.668;23.232;2023-07-29T06:39:05;2.03;;;1.50;;
36573;SDS011;22578;42.668;23.232;2023-07-29T06:42:25;1.58;;;1.27;;
36573;SDS011;22578;42.668;23.232;2023-07-29T06:45:46;1.55;;;1.45;;
36573;SDS011;22578;42.668;23.232;2023-07-29T06:49:06;1.20;;;1.13;;
36573;SDS011;22578;42.668;23.232;2023-07-29T06:52:27;3.45;;;1.88;;
36573;SDS011;22578;42.668;23.232;2023-07-29T06:55:47;1.52;;;1.42;;
36573;SDS011;22578;42.668;23.232;2023-07-29T06:59:08;1.38;;;1.17;;
36573;SDS011;22578;42.668;23.232;2023-07-29T07:02:28;1.45;;;1.35;;
36573;SDS011;22578;42.668;23.232;2023-07-29T07:05:49;1.92;;;1.52;;
36573;SDS011;22578;42.668;23.232;2023-07-29T07:09:10;1.52;;;1.42;;
36573;SDS011;22578;42.668;23.232;2023-07-29T07:12:30;1.42;;;1.33;;
36573;SDS011;22578;42.668;23.232;2023-07-29T07:15:50;1.17;;;1.17;;
36573;SDS011;22578;42.668;23.232;2023-07-29T07:19:14;1.27;;;1.10;;
36573;SDS011;22578;42.668;23.232;2023-07-29T07:22:35;1.95;;;1.77;;
36573;SDS011;22578;42.668;23.232;2023-07-29T07:25:55;1.23;;;1.13;;
36573;SDS011;22578;42.668;23.232;2023-07-29T07:29:15;1.45;;;1.35;;
36573;SDS011;22578;42.668;23.232;2023-07-29T07:32:36;5.07;;;1.25;;
36573;SDS011;22578;42.668;23.232;2023-07-29T07:35:57;1.67;;;1.30;;
36573;SDS011;22578;42.668;23.232;2023-07-29T07:39:17;1.58;;;1.48;;
36573;SDS011;22578;42.668;23.232;2023-07-29T07:42:38;2.88;;;1.58;;
36573;SDS011;22578;42.668;23.232;2023-07-29T07:45:58;1.40;;;1.30;;
36573;SDS011;22578;42.668;23.232;2023-07-29T07:49:19;3.05;;;1.10;;
36573;SDS011;22578;42.668;23.232;2023-07-29T07:52:40;1.13;;;0.98;;
36573;SDS011;22578;42.668;23.232;2023-07-29T07:56:00;1.35;;;1.25;;
36573;SDS011;22578;42.668;23.232;2023-07-29T07:59:21;2.20;;;1.38;;
36573;SDS011;22578;42.668;23.232;2023-07-29T08:02:41;1.27;;;1.17;;
36573;SDS011;22578;42.668;23.232;2023-07-29T08:06:01;2.03;;;1.48;;
36573;SDS011;22578;42.668;23.232;2023-07-29T08:09:22;1.42;;;1.33;;
36573;SDS011;22578;42.668;23.232;2023-07-29T08:12:43;2.03;;;1.45;;
36573;SDS011;22578;42.668;23.232;2023-07-29T08:16:03;1.50;;;1.35;;
36573;SDS011;22578;42.668;23.232;2023-07-29T08:19:24;1.17;;;1.10;;
36573;SDS011;22578;42.668;23.232;2023-07-29T08:22:44;2.22;;;1.58;;
36573;SDS011;22578;42.668;23.232;2023-07-29T08:26:05;2.15;;;1.52;;
36573;SDS011;22578;42.668;23.232;2023-07-29T08:29:26;1.60;;;1.45;;
36573;SDS011;22578;42.668;23.232;2023-07-29T08:32:46;1.30;;;1.20;;
36573;SDS011;22578;42.668;23.232;2023-07-29T08:36:07;1.58;;;1.48;;
36573;SDS011;22578;42.668;23.232;2023-07-29T08:39:28;1.35;;;1.20;;
36573;SDS011;22578;42.668;23.232;2023-07-29T08:42:48;0.80;;;0.80;;
36573;SDS011;22578;42.668;23.232;2023-07-29T08:46:10;1.58;;;1.40;;
36573;SDS011;22578;42.668;23.232;2023-07-29T08:49:32;0.80;;;0.80;;
36573;SDS011;22578;42.668;23.232;2023-07-29T08:52:53;1.20;;;1.10;;
36573;SDS011;22578;42.668;23.232;2023-07-29T08:56:15;1.40;;;1.20;;
36573;SDS011;22578;42.668;23.232;2023-07-29T08:59:36;0.82;;;0.82;;
36573;SDS011;22578;42.668;23.232;2023-07-29T09:02:57;1.67;;;1.35;;
36573;SDS011;22578;42.668;23.232;2023-07-29T09:06:23;0.90;;;0.90;;
36573;SDS011;22578;42.668;23.232;2023-07-29T09:09:45;1.30;;;1.20;;
36573;SDS011;22578;42.668;23.232;2023-07-29T09:13:06;3.17;;;1.50;;
36573;SDS011;22578;42.668;23.232;2023-07-29T10:31:08;0.50;;;0.50;;
36573;SDS011;22578;42.668;23.232;2023-07-29T10:34:30;0.65;;;0.65;;
36573;SDS011;22578;42.668;23.232;2023-07-29T10:37:51;0.73;;;0.70;;
36573;SDS011;22578;42.668;23.232;2023-07-29T10:41:13;0.50;;;0.50;;
36573;SDS011;22578;42.668;23.232;2023-07-29T10:48:00;0.60;;;0.60;;
36573;SDS011;22578;42.668;23.232;2023-07-29T10:51:27;0.68;;;0.68;;
36573;SDS011;22578;42.668;23.232;2023-07-29T10:54:52;0.60;;;0.60;;
36573;SDS011;22578;42.668;23.232;2023-07-29T10:58:14;0.52;;;0.52;;
36573;SDS011;22578;42.668;23.232;2023-07-29T11:01:37;1.42;;;1.30;;
36573;SDS011;22578;42.668;23.232;2023-07-29T11:04:59;0.63;;;0.63;;
36573;SDS011;22578;42.668;23.232;2023-07-29T11:08:28;0.70;;;0.70;;
36573;SDS011;22578;42.668;23.232;2023-07-29T11:11:50;0.73;;;0.57;;
36573;SDS011;22578;42.668;23.232;2023-07-29T11:18:31;1.27;;;0.70;;
36573;SDS011;22578;42.668;23.232;2023-07-29T11:21:53;0.70;;;0.70;;
36573;SDS011;22578;42.668;23.232;2023-07-29T11:25:14;0.60;;;0.60;;
36573;SDS011;22578;42.668;23.232;2023-07-29T11:28:38;0.60;;;0.60;;
36573;SDS011;22578;42.668;23.232;2023-07-29T11:32:00;0.60;;;0.60;;
36573;SDS011;22578;42.668;23.232;2023-07-29T11:35:20;0.60;;;0.60;;
36573;SDS011;22578;42.668;23.232;2023-07-29T11:38:41;0.43;;;0.43;;
36573;SDS011;22578;42.668;23.232;2023-07-29T11:42:01;0.47;;;0.47;;
36573;SDS011;22578;42.668;23.232;2023-07-29T11:45:22;0.60;;;0.60;;
36573;SDS011;22578;42.668;23.232;2023-07-29T11:48:44;1.85;;;0.80;;
36573;SDS011;22578;42.668;23.232;2023-07-29T11:52:06;0.75;;;0.70;;
36573;SDS011;22578;42.668;23.232;2023-07-29T11:55:27;0.65;;;0.60;;
36573;SDS011;22578;42.668;23.232;2023-07-29T11:58:47;0.50;;;0.50;;
36573;SDS011;22578;42.668;23.232;2023-07-29T12:02:09;0.50;;;0.50;;
36573;SDS011;22578;42.668;23.232;2023-07-29T12:05:31;0.65;;;0.65;;
36573;SDS011;22578;42.668;23.232;2023-07-29T12:08:52;0.50;;;0.50;;
36573;SDS011;22578;42.668;23.232;2023-07-29T12:12:12;0.70;;;0.70;;
36573;SDS011;22578;42.668;23.232;2023-07-29T12:15:33;0.57;;;0.57;;
36573;SDS011;22578;42.668;23.232;2023-07-29T12:18:53;0.60;;;0.60;;
36573;SDS011;22578;42.668;23.232;2023-07-29T12:22:17;0.60;;;0.60;;
36573;SDS011;22578;42.668;23.232;2023-07-29T12:25:38;0.60;;;0.60;;
36573;SDS011;22578;42.668;23.232;2023-07-29T12:28:59;0.50;;;0.50;;
36573;SDS011;22578;42.668;23.232;2023-07-29T12:32:20;0.80;;;0.80;;
36573;SDS011;22578;42.668;23.232;2023-07-29T12:35:40;0.57;;;0.57;;
36573;SDS011;22578;42.668;23.232;2023-07-29T12:39:00;0.50;;;0.50;;
36573;SDS011;22578;42.668;23.232;2023-07-29T12:42:21;0.70;;;0.70;;
36573;SDS011;22578;42.668;23.232;2023-07-29T12:45:41;0.55;;;0.55;;
36573;SDS011;22578;42.668;23.232;2023-07-29T12:49:02;0.60;;;0.60;;
36573;SDS011;22578;42.668;23.232;2023-07-29T12:52:22;0.50;;;0.50;;
36573;SDS011;22578;42.668;23.232;2023-07-29T12:55:43;0.60;;;0.60;;
36573;SDS011;22578;42.668;23.232;2023-07-29T12:59:04;0.70;;;0.70;;
36573;SDS011;22578;42.668;23.232;2023-07-29T13:02:25;0.70;;;0.70;;
36573;SDS011;22578;42.668;23.232;2023-07-29T13:05:45;0.65;;;0.65;;
36573;SDS011;22578;42.668;23.232;2023-07-29T13:09:06;0.60;;;0.60;;
36573;SDS011;22578;42.668;23.232;2023-07-29T13:12:26;0.52;;;0.52;;
36573;SDS011;22578;42.668;23.232;2023-07-29T13:15:47;0.55;;;0.55;;
36573;SDS011;22578;42.668;23.232;2023-07-29T13:19:07;0.55;;;0.55;;
36573;SDS011;22578;42.668;23.232;2023-07-29T13:22:27;0.80;;;0.68;;
36573;SDS011;22578;42.668;23.232;2023-07-29T13:25:48;0.80;;;0.80;;
36573;SDS011;22578;42.668;23.232;2023-07-29T13:29:08;0.70;;;0.70;;
36573;SDS011;22578;42.668;23.232;2023-07-29T13:32:29;0.60;;;0.60;;
36573;SDS011;22578;42.668;23.232;2023-07-29T13:35:49;0.98;;;0.80;;
36573;SDS011;22578;42.668;23.232;2023-07-29T13:39:10;0.60;;;0.60;;
36573;SDS011;22578;42.668;23.232;2023-07-29T13:42:30;0.80;;;0.80;;
36573;SDS011;22578;42.668;23.232;2023-07-29T13:45:50;0.80;;;0.80;;
36573;SDS011;22578;42.668;23.232;2023-07-29T13:49:11;1.10;;;1.00;;
36573;SDS011;22578;42.668;23.232;2023-07-29T13:52:31;0.60;;;0.60;;
36573;SDS011;22578;42.668;23.232;2023-07-29T13:55:52;1.15;;;0.73;;
36573;SDS011;22578;42.668;23.232;2023-07-29T13:59:12;0.80;;;0.80;;
36573;SDS011;22578;42.668;23.232;2023-07-29T14:02:33;0.60;;;0.60;;
36573;SDS011;22578;42.668;23.232;2023-07-29T14:05:53;0.90;;;0.90;;
36573;SDS011;22578;42.668;23.232;2023-07-29T14:09:13;0.70;;;0.70;;
36573;SDS011;22578;42.668;23.232;2023-07-29T14:12:34;0.70;;;0.70;;
36573;SDS011;22578;42.668;23.232;2023-07-29T14:15:54;1.10;;;1.00;;
36573;SDS011;22578;42.668;23.232;2023-07-29T14:19:15;1.00;;;0.80;;
36573;SDS011;22578;42.668;23.232;2023-07-29T14:22:35;0.70;;;0.70;;
36573;SDS011;22578;42.668;23.232;2023-07-29T14:25:56;1.90;;;1.65;;
36573;SDS011;22578;42.668;23.232;2023-07-29T14:29:16;0.95;;;0.93;;
36573;SDS011;22578;42.668;23.232;2023-07-29T14:32:37;0.80;;;0.80;;
36573;SDS011;22578;42.668;23.232;2023-07-29T14:35:57;0.80;;;0.80;;
36573;SDS011;22578;42.668;23.232;2023-07-29T14:39:18;1.20;;;0.88;;
36573;SDS011;22578;42.668;23.232;2023-07-29T14:42:38;1.15;;;1.10;;
36573;SDS011;22578;42.668;23.232;2023-07-29T14:45:58;0.75;;;0.75;;
36573;SDS011;22578;42.668;23.232;2023-07-29T14:49:19;1.02;;;1.00;;
36573;SDS011;22578;42.668;23.232;2023-07-29T14:52:39;0.90;;;0.90;;
36573;SDS011;22578;42.668;23.232;2023-07-29T14:56:00;1.00;;;1.00;;
36573;SDS011;22578;42.668;23.232;2023-07-29T14:59:21;0.90;;;0.90;;
36573;SDS011;22578;42.668;23.232;2023-07-29T15:02:41;0.98;;;0.98;;
36573;SDS011;22578;42.668;23.232;2023-07-29T15:06:02;0.93;;;0.80;;
36573;SDS011;22578;42.668;23.232;2023-07-29T15:09:23;1.02;;;0.90;;
36573;SDS011;22578;42.668;23.232;2023-07-29T15:12:44;1.08;;;0.98;;
36573;SDS011;22578;42.668;23.232;2023-07-29T15:16:05;0.80;;;0.80;;
36573;SDS011;22578;42.668;23.232;2023-07-29T15:19:25;0.85;;;0.82;;
36573;SDS011;22578;42.668;23.232;2023-07-29T15:22:45;0.80;;;0.80;;
36573;SDS011;22578;42.668;23.232;2023-07-29T15:26:06;1.60;;;1.33;;
36573;SDS011;22578;42.668;23.232;2023-07-29T15:29:26;1.23;;;1.13;;
36573;SDS011;22578;42.668;23.232;2023-07-29T15:32:47;1.38;;;1.15;;
36573;SDS011;22578;42.668;23.232;2023-07-29T15:36:07;4.53;;;1.00;;
36573;SDS011;22578;42.668;23.232;2023-07-29T15:39:27;1.05;;;0.93;;
36573;SDS011;22578;42.668;23.232;2023-07-29T15:42:48;1.63;;;1.15;;
36573;SDS011;22578;42.668;23.232;2023-07-29T15:46:09;0.85;;;0.80;;
36573;SDS011;22578;42.668;23.232;2023-07-29T15:49:29;2.55;;;1.25;;
36573;SDS011;22578;42.668;23.232;2023-07-29T15:52:50;2.05;;;1.58;;
36573;SDS011;22578;42.668;23.232;2023-07-29T15:56:10;1.33;;;1.23;;
36573;SDS011;22578;42.668;23.232;2023-07-29T15:59:30;0.80;;;0.80;;
36573;SDS011;22578;42.668;23.232;2023-07-29T16:02:51;0.82;;;0.82;;
36573;SDS011;22578;42.668;23.232;2023-07-29T16:06:11;0.85;;;0.80;;
36573;SDS011;22578;42.668;23.232;2023-07-29T16:09:32;1.50;;;1.17;;
36573;SDS011;22578;42.668;23.232;2023-07-29T16:12:52;3.50;;;2.10;;
36573;SDS011;22578;42.668;23.232;2023-07-29T16:16:12;1.92;;;0.93;;
36573;SDS011;22578;42.668;23.232;2023-07-29T16:19:33;0.88;;;0.88;;
36573;SDS011;22578;42.668;23.232;2023-07-29T16:23:12;0.60;;;0.60;;
36573;SDS011;22578;42.668;23.232;2023-07-29T16:26:33;1.25;;;0.82;;
36573;SDS011;22578;42.668;23.232;2023-07-29T16:29:53;1.37;;;0.90;;
36573;SDS011;22578;42.668;23.232;2023-07-29T16:33:13;0.80;;;0.80;;
36573;SDS011;22578;42.668;23.232;2023-07-29T16:36:34;1.00;;;0.90;;
36573;SDS011;22578;42.668;23.232;2023-07-29T16:39:54;1.00;;;0.98;;
36573;SDS011;22578;42.668;23.232;2023-07-29T16:43:15;1.85;;;1.35;;
36573;SDS011;22578;42.668;23.232;2023-07-29T16:46:35;0.80;;;0.80;;
36573;SDS011;22578;42.668;23.232;2023-07-29T16:49:55;0.85;;;0.82;;
36573;SDS011;22578;42.668;23.232;2023-07-29T16:53:16;0.80;;;0.80;;
36573;SDS011;22578;42.668;23.232;2023-07-29T16:56:36;0.90;;;0.90;;
36573;SDS011;22578;42.668;23.232;2023-07-29T16:59:57;0.75;;;0.75;;
36573;SDS011;22578;42.668;23.232;2023-07-29T17:03:17;0.70;;;0.70;;
36573;SDS011;22578;42.668;23.232;2023-07-29T17:06:38;0.70;;;0.70;;
36573;SDS011;22578;42.668;23.232;2023-07-29T17:09:58;0.93;;;0.90;;
36573;SDS011;22578;42.668;23.232;2023-07-29T17:13:19;0.90;;;0.90;;
36573;SDS011;22578;42.668;23.232;2023-07-29T17:16:39;1.38;;;1.00;;
36573;SDS011;22578;42.668;23.232;2023-07-29T17:20:00;0.93;;;0.90;;
36573;SDS011;22578;42.668;23.232;2023-07-29T17:23:20;1.27;;;1.17;;
36573;SDS011;22578;42.668;23.232;2023-07-29T17:26:41;1.20;;;1.00;;
36573;SDS011;22578;42.668;23.232;2023-07-29T17:30:01;1.10;;;1.00;;
36573;SDS011;22578;42.668;23.232;2023-07-29T17:33:21;1.67;;;1.00;;
36573;SDS011;22578;42.668;23.232;2023-07-29T17:36:42;1.30;;;1.20;;
36573;SDS011;22578;42.668;23.232;2023-07-29T17:40:02;1.75;;;1.27;;
36573;SDS011;22578;42.668;23.232;2023-07-29T17:43:23;2.20;;;1.33;;
36573;SDS011;22578;42.668;23.232;2023-07-29T17:46:44;3.25;;;1.30;;
36573;SDS011;22578;42.668;23.232;2023-07-29T17:50:04;2.00;;;1.42;;
36573;SDS011;22578;42.668;23.232;2023-07-29T17:53:25;0.80;;;0.80;;
36573;SDS011;22578;42.668;23.232;2023-07-29T17:56:45;1.17;;;1.13;;
36573;SDS011;22578;42.668;23.232;2023-07-29T18:00:06;0.80;;;0.80;;
36573;SDS011;22578;42.668;23.232;2023-07-29T18:03:27;1.45;;;1.20;;
36573;SDS011;22578;42.668;23.232;2023-07-29T18:06:48;1.17;;;1.08;;
36573;SDS011;22578;42.668;23.232;2023-07-29T18:10:08;3.58;;;1.30;;
36573;SDS011;22578;42.668;23.232;2023-07-29T18:13:29;1.65;;;1.48;;
36573;SDS011;22578;42.668;23.232;2023-07-29T18:16:50;1.55;;;0.95;;
36573;SDS011;22578;42.668;23.232;2023-07-29T18:20:10;1.75;;;1.02;;
36573;SDS011;22578;42.668;23.232;2023-07-29T18:23:31;1.08;;;0.98;;
36573;SDS011;22578;42.668;23.232;2023-07-29T18:26:51;1.00;;;0.98;;
36573;SDS011;22578;42.668;23.232;2023-07-29T18:30:12;1.00;;;1.00;;
36573;SDS011;22578;42.668;23.232;2023-07-29T18:33:35;1.08;;;0.95;;
36573;SDS011;22578;42.668;23.232;2023-07-29T18:36:55;1.20;;;1.10;;
36573;SDS011;22578;42.668;23.232;2023-07-29T18:40:15;1.33;;;1.23;;
36573;SDS011;22578;42.668;23.232;2023-07-29T18:43:36;1.35;;;1.05;;
36573;SDS011;22578;42.668;23.232;2023-07-29T18:46:56;2.00;;;1.23;;
36573;SDS011;22578;42.668;23.232;2023-07-29T18:50:17;1.02;;;1.02;;
36573;SDS011;22578;42.668;23.232;2023-07-29T18:53:37;0.80;;;0.80;;
36573;SDS011;22578;42.668;23.232;2023-07-29T18:56:58;1.10;;;1.10;;
36573;SDS011;22578;42.668;23.232;2023-07-29T19:00:18;0.80;;;0.80;;
36573;SDS011;22578;42.668;23.232;2023-07-29T19:03:39;1.10;;;1.10;;
36573;SDS011;22578;42.668;23.232;2023-07-29T19:07:01;1.40;;;1.30;;
36573;SDS011;22578;42.668;23.232;2023-07-29T19:10:22;0.88;;;0.88;;
36573;SDS011;22578;42.668;23.232;2023-07-29T19:13:42;1.33;;;1.20;;
36573;SDS011;22578;42.668;23.232;2023-07-29T19:17:03;1.20;;;1.10;;
36573;SDS011;22578;42.668;23.232;2023-07-29T19:20:23;1.13;;;1.10;;
36573;SDS011;22578;42.668;23.232;2023-07-29T19:23:44;1.27;;;1.02;;
36573;SDS011;22578;42.668;23.232;2023-07-29T19:27:04;1.67;;;1.30;;
36573;SDS011;22578;42.668;23.232;2023-07-29T19:30:25;1.95;;;1.63;;
36573;SDS011;22578;42.668;23.232;2023-07-29T19:33:45;1.00;;;1.00;;
36573;SDS011;22578;42.668;23.232;2023-07-29T19:37:06;1.27;;;1.17;;
36573;SDS011;22578;42.668;23.232;2023-07-29T19:40:27;1.20;;;1.10;;
36573;SDS011;22578;42.668;23.232;2023-07-29T19:43:47;2.13;;;1.50;;
36573;SDS011;22578;42.668;23.232;2023-07-29T19:47:10;1.27;;;1.10;;
36573;SDS011;22578;42.668;23.232;2023-07-29T19:50:32;1.00;;;1.00;;
36573;SDS011;22578;42.668;23.232;2023-07-29T19:53:52;1.20;;;1.10;;
36573;SDS011;22578;42.668;23.232;2023-07-29T19:57:12;1.02;;;1.02;;
36573;SDS011;22578;42.668;23.232;2023-07-29T20:00:33;1.90;;;1.30;;
36573;SDS011;22578;42.668;23.232;2023-07-29T20:03:53;1.20;;;1.10;;
36573;SDS011;22578;42.668;23.232;2023-07-29T20:07:14;1.20;;;0.95;;
36573;SDS011;22578;42.668;23.232;2023-07-29T20:10:34;1.65;;;1.35;;
36573;SDS011;22578;42.668;23.232;2023-07-29T20:13:54;7.13;;;1.65;;
36573;SDS011;22578;42.668;23.232;2023-07-29T20:17:15;1.90;;;1.60;;
36573;SDS011;22578;42.668;23.232;2023-07-29T20:20:35;1.38;;;1.27;;
36573;SDS011;22578;42.668;23.232;2023-07-29T20:23:56;14.13;;;1.42;;
36573;SDS011;22578;42.668;23.232;2023-07-29T20:27:16;1.20;;;1.10;;
36573;SDS011;22578;42.668;23.232;2023-07-29T20:30:36;1.75;;;1.25;;
36573;SDS011;22578;42.668;23.232;2023-07-29T20:33:57;1.02;;;1.02;;
36573;SDS011;22578;42.668;23.232;2023-07-29T20:37:17;1.35;;;1.23;;
36573;SDS011;22578;42.668;23.232;2023-07-29T20:40:38;1.38;;;1.27;;
36573;SDS011;22578;42.668;23.232;2023-07-29T20:43:58;1.05;;;1.00;;
36573;SDS011;22578;42.668;23.232;2023-07-29T20:47:18;0.90;;;0.90;;
36573;SDS011;22578;42.668;23.232;2023-07-29T20:50:42;1.17;;;1.10;;
36573;SDS011;22578;42.668;23.232;2023-07-29T20:54:03;0.95;;;0.95;;
36573;SDS011;22578;42.668;23.232;2023-07-29T20:57:23;0.90;;;0.90;;
36573;SDS011;22578;42.668;23.232;2023-07-29T21:00:44;1.92;;;1.15;;
36573;SDS011;22578;42.668;23.232;2023-07-29T21:04:04;1.25;;;1.20;;
36573;SDS011;22578;42.668;23.232;2023-07-29T21:07:25;1.23;;;1.13;;
36573;SDS011;22578;42.668;23.232;2023-07-29T21:10:51;1.42;;;1.02;;
36573;SDS011;22578;42.668;23.232;2023-07-29T21:14:12;1.02;;;1.02;;
36573;SDS011;22578;42.668;23.232;2023-07-29T21:17:33;0.85;;;0.85;;
36573;SDS011;22578;42.668;23.232;2023-07-29T21:20:53;1.42;;;1.33;;